createdAt,value
2022-10-07T00:03:13.126Z,12.41
2022-10-07T00:08:38.322Z,12.40
2022-10-07T00:14:03.214Z,12.46
2022-10-07T00:19:26.253Z,12.09
2022-10-07T00:24:50.734Z,12.19
2022-10-07T00:30:14.564Z,12.17
2022-10-07T00:35:38.856Z,12.23
2022-10-07T00:41:03.544Z,12.14
2022-10-07T00:46:32.477Z,12.24
2022-10-07T00:51:55.694Z,12.25
2022-10-07T00:57:20.284Z,12.05
2022-10-07T01:02:43.541Z,12.03
2022-10-07T01:08:06.935Z,12.08
2022-10-07T01:13:34.492Z,12.06
2022-10-07T01:19:05.741Z,12.07
2022-10-07T01:24:37.729Z,12.18
2022-10-07T01:30:05.105Z,11.87
2022-10-07T01:35:32.759Z,12.19
2022-10-07T01:40:58.363Z,11.99
2022-10-07T01:46:24.929Z,12.03
2022-10-07T01:51:59.031Z,11.86
2022-10-07T01:57:29.538Z,12.00
2022-10-07T02:03:13.205Z,12.12
2022-10-07T02:08:40.281Z,12.24
2022-10-07T02:14:10.214Z,12.18
2022-10-07T02:19:37.302Z,12.13
2022-10-07T02:25:00.599Z,12.12
2022-10-07T02:30:26.185Z,12.09
2022-10-07T02:35:52.575Z,12.01
2022-10-07T02:41:31.497Z,12.00
2022-10-07T02:47:05.413Z,12.02
2022-10-07T02:52:31.390Z,12.10
2022-10-07T02:57:59.425Z,11.95
2022-10-07T03:03:23.152Z,12.02
2022-10-07T03:08:55.018Z,11.97
2022-10-07T03:14:19.579Z,12.20
2022-10-07T03:19:42.853Z,12.12
2022-10-07T03:25:09.020Z,12.03
2022-10-07T03:30:32.568Z,12.06
2022-10-07T03:35:55.852Z,12.01
2022-10-07T03:41:20.735Z,12.09
2022-10-07T03:46:50.191Z,12.05
2022-10-07T03:52:14.691Z,12.06
2022-10-07T03:57:56.888Z,12.01
2022-10-07T04:03:22.915Z,12.05
2022-10-07T04:08:46.154Z,11.99
2022-10-07T04:14:11.044Z,11.93
2022-10-07T04:19:35.878Z,11.98
2022-10-07T04:25:17.166Z,12.09
2022-10-07T04:30:43.717Z,12.01
2022-10-07T04:36:09.886Z,12.05
2022-10-07T04:41:47.502Z,12.12
2022-10-07T04:47:17.472Z,11.96
2022-10-07T04:52:40.848Z,11.73
2022-10-07T04:58:04.321Z,11.75
2022-10-07T05:03:30.165Z,11.52
2022-10-07T05:08:54.306Z,11.47
2022-10-07T05:14:21.252Z,11.58
2022-10-07T05:19:46.709Z,11.70
2022-10-07T05:25:10.402Z,11.51
2022-10-07T05:30:33.641Z,11.49
2022-10-07T05:35:58.696Z,11.57
2022-10-07T05:41:22.472Z,11.56
2022-10-07T05:46:45.798Z,11.57
2022-10-07T05:52:11.791Z,11.74
2022-10-07T05:57:36.889Z,11.80
2022-10-07T06:03:02.634Z,11.80
2022-10-07T06:08:27.924Z,11.73
2022-10-07T06:13:55.047Z,11.77
2022-10-07T06:19:22.723Z,11.71
2022-10-07T06:24:52.046Z,11.84
2022-10-07T06:30:16.761Z,11.91
2022-10-07T06:35:40.203Z,11.94
2022-10-07T06:41:07.095Z,12.08
2022-10-07T06:46:31.776Z,12.05
2022-10-07T06:51:55.069Z,12.20
2022-10-07T06:57:44.828Z,12.12
2022-10-07T07:03:04.650Z,12.22
2022-10-07T07:08:30.918Z,12.42
2022-10-07T07:13:57.337Z,12.60
2022-10-07T07:19:21.432Z,12.72
2022-10-07T07:24:45.041Z,12.53
2022-10-07T07:30:11.016Z,12.63
2022-10-07T07:35:39.948Z,12.83
2022-10-07T07:41:05.893Z,13.12
2022-10-07T07:46:34.830Z,13.42
2022-10-07T07:51:58.595Z,13.38
2022-10-07T07:57:27.724Z,13.35
2022-10-07T08:02:53.909Z,13.37
2022-10-07T08:08:17.540Z,13.42
2022-10-07T08:13:41.831Z,13.38
2022-10-07T08:19:10.034Z,13.54
2022-10-07T08:24:33.250Z,13.56
2022-10-07T08:29:56.505Z,13.79
2022-10-07T08:35:21.675Z,14.05
2022-10-07T08:40:49.615Z,14.10
2022-10-07T08:46:15.711Z,14.16
2022-10-07T08:51:44.779Z,14.26
2022-10-07T08:57:16.565Z,14.45
2022-10-07T09:02:44.890Z,14.67
2022-10-07T09:08:14.755Z,14.64
2022-10-07T09:13:40.409Z,14.78
2022-10-07T09:19:13.468Z,14.61
2022-10-07T09:24:38.125Z,14.58
2022-10-07T09:30:01.548Z,14.77
2022-10-07T09:35:26.653Z,14.96
2022-10-07T09:41:16.824Z,15.59
2022-10-07T09:46:46.837Z,15.75
2022-10-07T09:52:18.303Z,15.95
2022-10-07T09:57:45.968Z,16.10
2022-10-07T10:03:09.492Z,15.90
2022-10-07T10:08:35.015Z,15.60
2022-10-07T10:13:59.577Z,15.57
2022-10-07T10:19:25.137Z,15.76
2022-10-07T10:25:05.753Z,15.79
2022-10-07T10:30:30.856Z,15.60
2022-10-07T10:35:59.030Z,15.46
2022-10-07T10:41:31.356Z,15.32
2022-10-07T10:47:02.111Z,15.40
2022-10-07T10:52:35.365Z,15.71
2022-10-07T10:58:05.728Z,15.84
2022-10-07T11:03:47.138Z,15.89
2022-10-07T11:09:16.548Z,16.07
2022-10-07T11:14:45.227Z,16.37
2022-10-07T11:20:17.707Z,16.29
2022-10-07T11:25:44.530Z,16.44
2022-10-07T11:31:12.302Z,16.56
2022-10-07T11:36:45.591Z,16.51
2022-10-07T11:42:14.639Z,16.59
2022-10-07T11:47:40.680Z,16.84
2022-10-07T11:53:08.029Z,17.11
2022-10-07T11:58:32.925Z,16.87
2022-10-07T12:04:16.958Z,16.79
2022-10-07T12:10:21.945Z,16.72
2022-10-07T12:15:45.993Z,17.10
2022-10-07T12:21:12.375Z,17.31
2022-10-07T12:26:48.241Z,17.18
2022-10-07T12:32:42.734Z,17.34
2022-10-07T12:38:14.267Z,17.46
2022-10-07T12:43:49.771Z,17.51
2022-10-07T12:49:24.520Z,17.68
2022-10-07T12:54:51.503Z,17.60
2022-10-07T13:00:17.540Z,17.64
2022-10-07T13:06:18.728Z,17.27
2022-10-07T13:11:59.840Z,17.51
2022-10-07T13:17:36.257Z,17.51
2022-10-07T13:23:05.845Z,17.44
2022-10-07T13:28:37.158Z,17.32
2022-10-07T13:34:02.332Z,17.12
2022-10-07T13:39:26.054Z,17.21
2022-10-07T13:44:49.150Z,17.27
2022-10-07T13:50:18.612Z,17.36
2022-10-07T13:55:41.704Z,17.06
2022-10-07T14:01:09.815Z,16.88
2022-10-07T14:06:46.177Z,17.02
2022-10-07T14:12:12.232Z,16.83
2022-10-07T14:17:41.939Z,16.88
2022-10-07T14:23:08.794Z,16.81
2022-10-07T14:28:35.712Z,16.80
2022-10-07T14:34:19.191Z,16.85
2022-10-07T14:39:47.682Z,16.68
2022-10-07T14:45:16.062Z,16.71
2022-10-07T14:50:39.249Z,16.64
2022-10-07T14:56:03.716Z,16.65
2022-10-07T15:01:29.674Z,16.43
2022-10-07T15:06:55.841Z,16.42
2022-10-07T15:12:20.278Z,16.36
2022-10-07T15:17:44.428Z,16.43
2022-10-07T15:23:07.904Z,16.57
2022-10-07T15:28:33.138Z,16.64
2022-10-07T15:33:57.878Z,16.64
2022-10-07T15:39:21.256Z,16.88
2022-10-07T15:44:45.691Z,16.96
2022-10-07T15:50:10.747Z,16.91
2022-10-07T15:55:34.069Z,16.70
2022-10-07T16:00:59.839Z,16.60
2022-10-07T16:06:24.583Z,16.69
2022-10-07T16:11:47.819Z,16.66
2022-10-07T16:17:13.068Z,16.62
2022-10-07T16:22:36.191Z,16.57
2022-10-07T16:28:17.120Z,16.47
2022-10-07T16:33:41.921Z,16.51
2022-10-07T16:39:08.654Z,16.41
2022-10-07T16:44:31.761Z,16.43
2022-10-07T16:49:56.141Z,16.33
2022-10-07T16:55:19.152Z,16.23
2022-10-07T17:00:42.278Z,16.11
2022-10-07T17:06:07.753Z,16.05
2022-10-07T17:11:31.762Z,16.04
2022-10-07T17:16:57.618Z,15.94
2022-10-07T17:22:22.055Z,15.95
2022-10-07T17:27:45.334Z,15.99
2022-10-07T17:33:08.923Z,15.98
2022-10-07T17:38:34.119Z,15.94
2022-10-07T17:43:59.265Z,15.90
2022-10-07T17:49:22.387Z,15.98
2022-10-07T17:54:47.393Z,15.95
2022-10-07T18:00:11.176Z,15.93
2022-10-07T18:05:36.932Z,15.80
2022-10-07T18:11:02.828Z,15.76
2022-10-07T18:16:25.946Z,15.67
2022-10-07T18:21:49.099Z,15.50
2022-10-07T18:27:14.001Z,15.57
2022-10-07T18:32:37.041Z,15.43
2022-10-07T18:38:00.100Z,15.30
2022-10-07T18:43:24.630Z,15.27
2022-10-07T18:48:48.718Z,15.23
2022-10-07T18:54:11.881Z,15.19
2022-10-07T18:59:36.439Z,15.26
2022-10-07T19:04:59.457Z,15.16
2022-10-07T19:10:22.734Z,15.15
2022-10-07T19:15:47.142Z,15.22
2022-10-07T19:21:10.396Z,15.26
2022-10-07T19:26:35.347Z,15.10
2022-10-07T19:32:05.667Z,14.95
2022-10-07T19:37:31.069Z,15.00
2022-10-07T19:42:54.123Z,14.89
2022-10-07T19:48:18.512Z,14.88
2022-10-07T19:53:46.870Z,14.75
2022-10-07T19:59:12.085Z,14.74
2022-10-07T20:04:36.483Z,14.76
2022-10-07T20:09:59.583Z,14.82
2022-10-07T20:15:23.215Z,14.92
2022-10-07T20:20:47.628Z,15.02
2022-10-07T20:26:12.267Z,15.00
2022-10-07T20:31:36.916Z,15.03
2022-10-07T20:37:03.400Z,14.93
2022-10-07T20:42:28.747Z,14.95
2022-10-07T20:47:55.153Z,14.98
2022-10-07T20:53:19.648Z,14.99
2022-10-07T20:58:43.304Z,15.01
2022-10-07T21:04:06.575Z,14.94
2022-10-07T21:09:36.468Z,15.03
2022-10-07T21:15:01.105Z,14.94
2022-10-07T21:20:24.147Z,14.82
2022-10-07T21:25:48.751Z,14.82
2022-10-07T21:31:17.174Z,14.74
2022-10-07T21:36:42.743Z,14.79
2022-10-07T21:42:07.583Z,14.77
2022-10-07T21:47:30.651Z,14.77
2022-10-07T21:52:53.897Z,14.67
2022-10-07T21:58:19.915Z,14.75
2022-10-07T22:03:43.117Z,14.60
2022-10-07T22:09:06.287Z,14.45
2022-10-07T22:14:30.733Z,14.54
2022-10-07T22:19:53.785Z,14.62
2022-10-07T22:25:17.013Z,14.66
2022-10-07T22:30:42.133Z,14.46
2022-10-07T22:36:06.049Z,14.33
2022-10-07T22:41:29.379Z,14.36
2022-10-07T22:46:53.761Z,14.34
2022-10-07T22:52:16.840Z,14.02
2022-10-07T22:57:40.031Z,13.85
2022-10-07T23:03:05.399Z,13.77
2022-10-07T23:08:28.672Z,13.66
2022-10-07T23:13:52.089Z,13.95
2022-10-07T23:19:16.583Z,14.13
2022-10-07T23:24:39.731Z,13.80
2022-10-07T23:30:06.757Z,13.92
2022-10-07T23:35:32.126Z,13.77
2022-10-07T23:40:55.291Z,13.76
2022-10-07T23:46:19.633Z,13.80
2022-10-07T23:51:44.169Z,14.01
2022-10-07T23:57:07.193Z,13.97
